createdAt,value
2018-08-04T00:01:30.944Z,9.03
2018-08-04T00:03:59.027Z,8.30
2018-08-04T00:06:27.236Z,8.47
2018-08-04T00:08:55.877Z,8.80
2018-08-04T00:11:24.236Z,11.30
2018-08-04T00:14:26.332Z,8.83
2018-08-04T00:16:54.653Z,8.70
2018-08-04T00:19:22.951Z,8.27
2018-08-04T00:21:50.976Z,8.53
2018-08-04T00:24:19.227Z,8.70
2018-08-04T00:26:50.283Z,8.60
2018-08-04T00:29:18.974Z,8.57
2018-08-04T00:31:46.907Z,8.57
2018-08-04T00:34:14.956Z,8.90
2018-08-04T00:36:43.783Z,8.97
2018-08-04T00:39:12.452Z,8.43
2018-08-04T00:41:40.470Z,8.97
2018-08-04T00:44:08.476Z,9.03
2018-08-04T00:46:36.666Z,8.90
2018-08-04T00:49:04.760Z,9.53
2018-08-04T00:51:33.829Z,9.03
2018-08-04T00:54:01.800Z,10.03
2018-08-04T00:56:29.901Z,9.43
2018-08-04T00:58:57.906Z,9.30
2018-08-04T01:01:26.029Z,9.53
2018-08-04T01:03:54.037Z,9.33
2018-08-04T01:06:22.217Z,9.27
2018-08-04T01:08:50.334Z,8.87
2018-08-04T01:11:18.420Z,9.40
2018-08-04T01:13:47.754Z,8.53
2018-08-04T01:16:15.799Z,9.07
2018-08-04T01:18:43.789Z,9.00
2018-08-04T01:21:11.889Z,8.70
2018-08-04T01:23:39.854Z,9.27
2018-08-04T01:26:07.857Z,10.03
2018-08-04T01:28:37.080Z,10.00
2018-08-04T01:31:05.792Z,10.20
2018-08-04T01:33:34.744Z,10.43
2018-08-04T01:36:02.726Z,10.33
2018-08-04T01:38:32.536Z,9.97
2018-08-04T01:41:00.652Z,10.20
2018-08-04T01:43:29.879Z,10.00
2018-08-04T01:45:58.605Z,9.97
2018-08-04T01:48:26.840Z,10.33
2018-08-04T01:50:55.156Z,9.90
2018-08-04T01:53:23.412Z,9.70
2018-08-04T01:55:52.808Z,10.03
2018-08-04T01:58:20.892Z,10.37
2018-08-04T02:00:49.229Z,9.77
2018-08-04T02:03:17.224Z,10.37
2018-08-04T02:05:45.357Z,10.70
2018-08-04T02:08:13.759Z,10.03
2018-08-04T02:10:43.692Z,11.30
2018-08-04T02:13:11.866Z,10.73
2018-08-04T02:15:41.635Z,10.40
2018-08-04T02:18:10.680Z,10.40
2018-08-04T02:20:38.780Z,10.30
2018-08-04T02:23:07.628Z,9.80
2018-08-04T02:25:35.660Z,10.23
2018-08-04T02:28:04.013Z,10.17
2018-08-04T02:30:32.326Z,10.83
2018-08-04T02:33:04.410Z,10.23
2018-08-04T02:35:35.618Z,10.37
2018-08-04T02:38:04.023Z,10.20
2018-08-04T02:40:35.386Z,10.50
2018-08-04T02:43:03.390Z,9.80
2018-08-04T02:45:31.408Z,10.43
2018-08-04T02:47:59.466Z,11.10
2018-08-04T02:50:27.404Z,11.70
2018-08-04T02:52:56.889Z,10.70
2018-08-04T02:55:25.224Z,10.93
2018-08-04T02:57:53.309Z,10.73
2018-08-04T03:00:21.485Z,11.97
2018-08-04T03:02:49.542Z,11.53
2018-08-04T03:05:17.727Z,11.50
2018-08-04T03:07:45.745Z,11.10
2018-08-04T03:10:13.759Z,11.57
2018-08-04T03:12:41.720Z,11.20
2018-08-04T03:15:10.024Z,11.40
2018-08-04T03:17:38.106Z,11.17
2018-08-04T03:20:07.032Z,11.07
2018-08-04T03:22:35.641Z,11.10
2018-08-04T03:25:04.588Z,11.87
2018-08-04T03:27:32.408Z,10.60
2018-08-04T03:30:00.676Z,11.40
2018-08-04T03:32:28.852Z,10.87
2018-08-04T03:34:57.840Z,11.50
2018-08-04T03:37:26.011Z,11.20
2018-08-04T03:39:54.040Z,10.80
2018-08-04T03:42:30.516Z,10.97
2018-08-04T03:44:58.723Z,11.13
2018-08-04T03:47:26.851Z,10.77
2018-08-04T03:49:54.929Z,11.40
2018-08-04T03:52:23.001Z,11.10
2018-08-04T03:54:51.372Z,10.83
2018-08-04T03:57:20.711Z,11.07
2018-08-04T03:59:48.972Z,11.30
2018-08-04T04:02:18.323Z,11.13
2018-08-04T04:04:46.496Z,11.37
2018-08-04T04:07:14.608Z,11.40
2018-08-04T04:09:42.579Z,11.37
2018-08-04T04:12:11.518Z,11.60
2018-08-04T04:14:40.646Z,10.47
2018-08-04T04:17:08.683Z,10.93
2018-08-04T04:19:36.773Z,11.67
2018-08-04T04:22:04.855Z,11.47
2018-08-04T04:24:33.101Z,11.87
2018-08-04T04:27:01.142Z,11.30
2018-08-04T04:29:30.889Z,11.37
2018-08-04T04:31:58.931Z,10.93
2018-08-04T04:34:27.233Z,10.80
2018-08-04T04:36:55.370Z,11.20
2018-08-04T04:39:23.543Z,10.97
2018-08-04T04:41:51.593Z,10.57
2018-08-04T04:44:20.876Z,11.23
2018-08-04T04:46:49.313Z,11.87
2018-08-04T04:49:17.312Z,11.10
2018-08-04T04:51:45.350Z,11.60
2018-08-04T04:54:13.460Z,11.50
2018-08-04T04:56:41.452Z,11.40
2018-08-04T04:59:09.449Z,12.17
2018-08-04T05:01:37.654Z,11.83
2018-08-04T05:04:05.906Z,11.90
2018-08-04T05:06:34.580Z,12.60
2018-08-04T05:09:03.429Z,11.97
2018-08-04T05:11:31.597Z,11.63
2018-08-04T05:13:59.490Z,11.50
2018-08-04T05:16:36.453Z,11.57
2018-08-04T05:19:04.961Z,12.57
2018-08-04T05:21:33.150Z,12.27
2018-08-04T05:24:02.493Z,12.23
2018-08-04T05:26:31.534Z,12.77
2018-08-04T05:28:59.993Z,13.10
2018-08-04T05:31:28.633Z,12.43
2018-08-04T05:33:56.892Z,13.53
2018-08-04T05:36:25.661Z,13.63
2018-08-04T05:38:53.907Z,13.33
2018-08-04T05:41:21.936Z,12.73
2018-08-04T05:43:50.040Z,13.40
2018-08-04T05:46:24.203Z,13.57
2018-08-04T05:48:54.634Z,12.87
2018-08-04T05:51:22.648Z,12.50
2018-08-04T05:53:50.740Z,12.60
2018-08-04T05:56:19.600Z,13.13
2018-08-04T05:58:47.569Z,12.50
2018-08-04T06:01:17.125Z,12.53
2018-08-04T06:03:46.016Z,12.37
2018-08-04T06:06:14.600Z,12.13
2018-08-04T06:08:42.867Z,12.43
2018-08-04T06:11:11.111Z,12.03
2018-08-04T06:13:39.260Z,11.77
2018-08-04T06:16:08.329Z,11.53
2018-08-04T06:18:36.963Z,11.97
2018-08-04T06:21:05.161Z,11.43
2018-08-04T06:23:33.569Z,11.33
2018-08-04T06:26:01.799Z,11.47
2018-08-04T06:28:30.115Z,10.83
2018-08-04T06:30:58.292Z,11.37
2018-08-04T06:33:26.364Z,12.00
2018-08-04T06:35:55.952Z,11.90
2018-08-04T06:38:24.224Z,11.53
2018-08-04T06:40:52.320Z,12.50
2018-08-04T06:43:20.408Z,12.47
2018-08-04T06:45:48.538Z,11.73
2018-08-04T06:48:16.586Z,11.90
2018-08-04T06:50:44.779Z,12.03
2018-08-04T06:53:12.720Z,12.07
2018-08-04T06:55:41.099Z,11.80
2018-08-04T06:58:09.157Z,12.03
2018-08-04T07:00:37.812Z,12.03
2018-08-04T07:03:05.955Z,11.50
2018-08-04T07:05:34.007Z,12.43
2018-08-04T07:08:02.838Z,12.20
2018-08-04T07:10:31.329Z,12.70
2018-08-04T07:12:59.375Z,12.37
2018-08-04T07:15:27.380Z,11.80
2018-08-04T07:17:56.304Z,11.77
2018-08-04T07:20:25.224Z,12.27
2018-08-04T07:22:56.989Z,11.97
2018-08-04T07:25:25.000Z,12.07
2018-08-04T07:27:53.093Z,11.67
2018-08-04T07:30:21.239Z,11.70
2018-08-04T07:32:50.904Z,11.13
2018-08-04T07:35:18.963Z,10.90
2018-08-04T07:37:47.704Z,11.37
2018-08-04T07:40:16.722Z,10.93
2018-08-04T07:42:44.836Z,11.00
2018-08-04T07:45:14.865Z,10.43
2018-08-04T07:47:42.911Z,10.27
2018-08-04T07:50:11.836Z,10.57
2018-08-04T07:52:39.920Z,10.40
2018-08-04T07:55:08.616Z,10.50
2018-08-04T07:57:36.736Z,11.47
2018-08-04T08:00:06.852Z,10.77
2018-08-04T08:02:35.533Z,11.60
2018-08-04T08:05:04.964Z,10.80
2018-08-04T08:07:33.118Z,10.93
2018-08-04T08:10:05.570Z,10.13
2018-08-04T08:12:33.630Z,10.43
2018-08-04T08:15:01.855Z,10.73
2018-08-04T08:17:30.037Z,10.80
2018-08-04T08:19:59.677Z,10.43
2018-08-04T08:22:43.136Z,10.60
2018-08-04T08:25:11.213Z,11.13
2018-08-04T08:27:39.703Z,10.80
2018-08-04T08:30:12.352Z,11.87
2018-08-04T08:32:41.387Z,11.30
2018-08-04T08:35:24.081Z,10.77
2018-08-04T08:37:53.920Z,11.03
2018-08-04T08:40:22.057Z,11.30
2018-08-04T08:42:50.175Z,11.40
2018-08-04T08:45:18.168Z,10.37
2018-08-04T08:47:47.029Z,11.07
2018-08-04T08:50:21.060Z,10.73
2018-08-04T08:52:50.392Z,11.20
2018-08-04T08:55:18.528Z,11.23
2018-08-04T08:57:46.649Z,10.50
2018-08-04T09:00:14.763Z,11.07
2018-08-04T09:02:42.841Z,10.87
2018-08-04T09:05:11.708Z,11.40
2018-08-04T09:07:40.008Z,10.30
2018-08-04T09:10:12.337Z,10.83
2018-08-04T09:12:40.773Z,11.07
2018-08-04T09:15:10.641Z,10.20
2018-08-04T09:17:40.372Z,10.43
2018-08-04T09:20:10.096Z,10.10
2018-08-04T09:22:38.170Z,10.63
2018-08-04T09:25:06.718Z,9.73
2018-08-04T09:27:36.122Z,10.27
2018-08-04T09:30:06.705Z,9.97
2018-08-04T09:32:34.692Z,9.80
2018-08-04T09:35:02.914Z,9.70
2018-08-04T09:37:30.895Z,9.70
2018-08-04T09:39:59.063Z,9.27
2018-08-04T09:42:27.800Z,9.23
2018-08-04T09:44:56.790Z,9.03
2018-08-04T09:47:24.819Z,9.30
2018-08-04T09:49:53.133Z,8.77
2018-08-04T09:52:21.433Z,8.93
2018-08-04T09:54:50.431Z,7.53
2018-08-04T09:57:19.332Z,7.10
2018-08-04T09:59:47.394Z,6.73
2018-08-04T10:02:19.853Z,6.63
2018-08-04T10:04:47.883Z,5.03
2018-08-04T10:07:16.521Z,5.00
2018-08-04T10:09:45.116Z,4.50
2018-08-04T10:12:13.964Z,4.73
2018-08-04T10:14:42.900Z,4.80
2018-08-04T10:17:11.378Z,5.33
2018-08-04T10:19:39.957Z,5.77
2018-08-04T10:22:09.959Z,5.60
2018-08-04T10:24:38.138Z,5.87
2018-08-04T10:27:06.510Z,6.03
2018-08-04T10:29:35.664Z,4.93
2018-08-04T10:32:03.816Z,5.70
2018-08-04T10:34:32.680Z,6.17
2018-08-04T10:37:02.029Z,5.50
2018-08-04T10:39:30.146Z,6.00
2018-08-04T10:41:59.604Z,5.83
2018-08-04T10:44:28.450Z,6.00
2018-08-04T10:46:57.409Z,5.97
2018-08-04T10:49:26.196Z,6.90
2018-08-04T10:51:54.363Z,6.47
2018-08-04T10:54:22.567Z,6.10
2018-08-04T10:56:52.949Z,6.70
2018-08-04T10:59:20.922Z,7.10
2018-08-04T11:01:52.151Z,6.60
2018-08-04T11:04:20.361Z,6.70
2018-08-04T11:07:03.769Z,6.40
2018-08-04T11:09:32.513Z,7.00
2018-08-04T11:12:03.242Z,6.23
2018-08-04T11:14:31.278Z,6.70
2018-08-04T11:17:02.411Z,6.20
2018-08-04T11:19:30.482Z,5.63
2018-08-04T11:21:58.752Z,5.33
2018-08-04T11:24:28.079Z,5.37
2018-08-04T11:26:56.866Z,4.87
2018-08-04T11:29:25.890Z,4.90
2018-08-04T11:31:58.614Z,5.37
2018-08-04T11:34:28.512Z,5.57
2018-08-04T11:37:05.586Z,5.03
2018-08-04T11:39:39.275Z,5.50
2018-08-04T11:42:08.796Z,5.43
2018-08-04T11:44:37.012Z,5.53
2018-08-04T11:47:06.235Z,5.47
2018-08-04T11:49:40.071Z,5.70
2018-08-04T11:52:09.544Z,5.47
2018-08-04T11:54:37.684Z,5.20
2018-08-04T11:57:06.716Z,5.40
2018-08-04T11:59:37.032Z,5.33
2018-08-04T12:02:05.428Z,5.20
2018-08-04T12:04:33.383Z,5.83
2018-08-04T12:07:01.470Z,6.37
2018-08-04T12:09:29.537Z,6.00
2018-08-04T12:11:57.865Z,5.83
2018-08-04T12:14:28.334Z,5.77
2018-08-04T12:16:57.147Z,5.87
2018-08-04T12:19:25.199Z,6.13
2018-08-04T12:21:55.614Z,5.70
2018-08-04T12:24:23.630Z,7.27
2018-08-04T12:26:51.613Z,5.50
2018-08-04T12:29:19.653Z,5.93
2018-08-04T12:31:47.704Z,5.20
2018-08-04T12:34:15.682Z,5.10
2018-08-04T12:36:44.176Z,5.27
2018-08-04T12:39:12.441Z,5.70
2018-08-04T12:41:41.397Z,5.43
2018-08-04T12:44:11.059Z,5.67
2018-08-04T12:46:39.421Z,5.53
2018-08-04T12:49:12.935Z,5.90
2018-08-04T12:51:50.459Z,6.53
2018-08-04T12:54:33.537Z,6.43
2018-08-04T12:57:06.883Z,5.73
2018-08-04T12:59:36.022Z,5.97
2018-08-04T13:02:05.187Z,5.50
2018-08-04T13:04:33.807Z,5.73
2018-08-04T13:07:01.816Z,6.20
2018-08-04T13:09:30.694Z,5.90
2018-08-04T13:11:58.698Z,5.90
2018-08-04T13:14:26.967Z,6.47
2018-08-04T13:16:55.705Z,6.77
2018-08-04T13:19:23.704Z,6.63
2018-08-04T13:21:52.368Z,6.03
2018-08-04T13:24:22.388Z,6.87
2018-08-04T13:26:50.379Z,6.63
2018-08-04T13:29:18.611Z,6.10
2018-08-04T13:31:49.550Z,6.00
2018-08-04T13:34:18.209Z,6.57
2018-08-04T13:36:46.736Z,6.30
2018-08-04T13:39:15.549Z,6.27
2018-08-04T13:41:44.412Z,6.93
2018-08-04T13:44:13.055Z,6.20
2018-08-04T13:46:41.062Z,5.93
2018-08-04T13:49:10.610Z,5.97
2018-08-04T13:51:40.607Z,6.23
2018-08-04T13:54:09.472Z,6.53
2018-08-04T13:56:37.712Z,6.40
2018-08-04T13:59:05.886Z,5.83
2018-08-04T14:01:33.846Z,5.80
2018-08-04T14:04:03.251Z,5.87
2018-08-04T14:06:32.880Z,6.23
2018-08-04T14:09:00.945Z,6.37
2018-08-04T14:11:29.000Z,6.83
2018-08-04T14:13:57.071Z,6.00
2018-08-04T14:16:25.649Z,5.83
2018-08-04T14:18:53.891Z,5.80
2018-08-04T14:21:24.155Z,6.13
2018-08-04T14:23:53.698Z,6.27
2018-08-04T14:26:22.515Z,6.10
2018-08-04T14:28:50.531Z,6.23
2018-08-04T14:31:18.930Z,5.93
2018-08-04T14:33:47.694Z,6.15
2018-08-04T14:36:15.784Z,6.33
2018-08-04T14:38:43.758Z,6.03
2018-08-04T14:41:12.252Z,6.00
2018-08-04T14:43:40.298Z,6.20
2018-08-04T14:46:08.468Z,5.93
2018-08-04T14:48:37.357Z,6.00
2018-08-04T14:51:06.366Z,5.47
2018-08-04T14:53:35.337Z,5.67
2018-08-04T14:56:04.473Z,5.93
2018-08-04T14:58:33.132Z,5.50
2018-08-04T15:01:02.293Z,5.83
2018-08-04T15:03:30.996Z,5.50
2018-08-04T15:06:01.766Z,6.00
2018-08-04T15:08:33.724Z,5.93
2018-08-04T15:11:01.864Z,5.30
2018-08-04T15:13:32.153Z,5.73
2018-08-04T15:16:00.883Z,5.53
2018-08-04T15:18:30.494Z,6.00
2018-08-04T15:20:58.838Z,5.70
2018-08-04T15:23:28.506Z,5.40
2018-08-04T15:25:56.978Z,6.07
2018-08-04T15:28:25.151Z,5.53
2018-08-04T15:30:53.330Z,5.47
2018-08-04T15:33:21.324Z,5.17
2018-08-04T15:35:51.073Z,5.53
2018-08-04T15:38:20.694Z,5.50
2018-08-04T15:40:49.620Z,5.43
2018-08-04T15:43:19.757Z,5.50
2018-08-04T15:45:48.220Z,5.67
2018-08-04T15:48:17.368Z,5.77
2018-08-04T15:50:45.501Z,5.50
2018-08-04T15:53:13.546Z,6.43
2018-08-04T15:55:41.679Z,5.30
2018-08-04T15:58:09.778Z,5.63
2018-08-04T16:00:40.056Z,5.53
2018-08-04T16:03:09.996Z,5.27
2018-08-04T16:05:39.364Z,5.37
2018-08-04T16:08:08.380Z,5.30
2018-08-04T16:10:36.467Z,5.43
2018-08-04T16:13:04.666Z,5.73
2018-08-04T16:15:36.012Z,7.63
2018-08-04T16:18:05.016Z,6.07
2018-08-04T16:20:33.647Z,5.50
2018-08-04T16:27:38.104Z,11.50
2018-08-04T16:30:07.356Z,6.70
2018-08-04T16:32:35.440Z,5.53
2018-08-04T16:35:04.318Z,5.10
2018-08-04T16:37:33.154Z,5.60
2018-08-04T16:40:01.965Z,5.70
2018-08-04T16:42:30.052Z,5.27
2018-08-04T16:44:58.729Z,5.50
2018-08-04T16:47:26.986Z,4.80
2018-08-04T16:49:56.344Z,5.30
2018-08-04T16:52:24.476Z,5.50
2018-08-04T16:54:53.331Z,18.93
2018-08-04T16:57:22.400Z,88.60
2018-08-04T16:59:50.496Z,62.10
2018-08-04T17:02:18.974Z,5.13
2018-08-04T17:04:47.004Z,4.60
2018-08-04T17:07:22.452Z,5.13
2018-08-04T17:09:52.211Z,5.40
2018-08-04T17:12:26.357Z,6.17
2018-08-04T17:17:34.976Z,4.97
2018-08-04T17:20:03.937Z,4.60
2018-08-04T17:22:34.181Z,4.63
2018-08-04T17:25:04.540Z,4.70
2018-08-04T17:27:32.717Z,4.63
2018-08-04T17:30:03.397Z,4.23
2018-08-04T17:32:31.866Z,4.17
2018-08-04T17:35:02.958Z,3.97
2018-08-04T17:37:31.026Z,4.10
2018-08-04T17:39:59.595Z,4.10
2018-08-04T17:42:27.737Z,3.70
2018-08-04T17:44:55.804Z,3.97
2018-08-04T17:47:24.437Z,4.43
2018-08-04T17:49:53.320Z,4.37
2018-08-04T17:52:22.352Z,3.97
2018-08-04T17:54:52.371Z,4.30
2018-08-04T17:57:21.037Z,4.20
2018-08-04T17:59:50.312Z,4.30
2018-08-04T18:02:20.403Z,4.07
2018-08-04T18:04:49.496Z,4.27
2018-08-04T18:07:19.463Z,4.00
2018-08-04T18:09:48.521Z,4.00
2018-08-04T18:12:19.738Z,4.30
2018-08-04T18:14:49.462Z,4.03
2018-08-04T18:17:18.592Z,3.80
2018-08-04T18:19:48.095Z,3.83
2018-08-04T18:22:20.944Z,3.90
2018-08-04T18:24:49.964Z,4.90
2018-08-04T18:27:18.409Z,5.00
2018-08-04T18:29:49.461Z,4.07
2018-08-04T18:32:19.533Z,4.07
2018-08-04T18:34:48.893Z,4.00
2018-08-04T18:37:17.116Z,4.17
2018-08-04T18:39:47.084Z,4.30
2018-08-04T18:42:17.844Z,4.20
2018-08-04T18:44:46.734Z,4.00
2018-08-04T18:47:14.831Z,4.13
2018-08-04T18:49:43.659Z,4.37
2018-08-04T18:52:16.142Z,4.00
2018-08-04T18:54:49.456Z,4.30
2018-08-04T18:57:18.485Z,3.77
2018-08-04T18:59:53.373Z,4.33
2018-08-04T19:02:25.923Z,4.20
2018-08-04T19:04:57.880Z,4.43
2018-08-04T19:07:25.984Z,3.87
2018-08-04T19:09:54.905Z,3.90
2018-08-04T19:12:25.729Z,3.40
2018-08-04T19:14:53.686Z,3.80
2018-08-04T19:17:24.820Z,3.90
2018-08-04T19:19:53.740Z,3.70
2018-08-04T19:22:23.171Z,3.90
2018-08-04T19:24:54.926Z,3.73
2018-08-04T19:27:23.135Z,3.57
2018-08-04T19:29:52.237Z,3.50
2018-08-04T19:32:21.609Z,3.17
2018-08-04T19:34:50.532Z,3.30
2018-08-04T19:37:18.652Z,3.20
2018-08-04T19:39:47.776Z,3.10
2018-08-04T19:42:15.830Z,3.43
2018-08-04T19:44:46.028Z,2.97
2018-08-04T19:47:15.258Z,2.73
2018-08-04T19:49:43.316Z,2.63
2018-08-04T19:52:12.019Z,2.40
2018-08-04T19:54:41.609Z,2.57
2018-08-04T19:57:12.327Z,2.53
2018-08-04T20:00:12.137Z,2.63
2018-08-04T20:02:41.983Z,4.63
2018-08-04T20:05:10.704Z,4.57
2018-08-04T20:07:39.795Z,3.20
2018-08-04T20:10:07.810Z,2.40
2018-08-04T20:12:36.433Z,2.50
2018-08-04T20:15:04.716Z,2.60
2018-08-04T20:17:32.804Z,2.00
2018-08-04T20:20:01.832Z,2.40
2018-08-04T20:22:29.972Z,2.10
2018-08-04T20:24:58.079Z,2.27
2018-08-04T20:27:26.949Z,2.10
2018-08-04T20:29:55.545Z,2.30
2018-08-04T20:32:24.410Z,2.10
2018-08-04T20:34:56.950Z,2.10
2018-08-04T20:37:25.092Z,2.27
2018-08-04T20:39:53.362Z,2.03
2018-08-04T20:42:22.762Z,2.00
2018-08-04T20:44:51.668Z,2.00
2018-08-04T20:47:32.313Z,1.93
2018-08-04T20:50:02.100Z,2.37
2018-08-04T20:52:30.352Z,1.93
2018-08-04T20:54:59.278Z,1.90
2018-08-04T20:57:28.021Z,2.00
2018-08-04T20:59:56.264Z,1.90
2018-08-04T21:02:25.864Z,2.27
2018-08-04T21:04:54.031Z,2.00
2018-08-04T21:07:22.168Z,1.80
2018-08-04T21:09:50.379Z,1.77
2018-08-04T21:12:20.093Z,1.90
2018-08-04T21:14:49.491Z,1.90
2018-08-04T21:17:18.385Z,1.70
2018-08-04T21:19:46.408Z,1.77
2018-08-04T21:22:14.518Z,1.90
2018-08-04T21:24:42.615Z,2.10
2018-08-04T21:27:13.697Z,1.87
2018-08-04T21:29:41.651Z,1.97
2018-08-04T21:32:09.619Z,2.00
2018-08-04T21:34:37.673Z,1.80
2018-08-04T21:37:05.723Z,2.13
2018-08-04T21:39:34.020Z,1.60
2018-08-04T21:42:02.716Z,1.80
2018-08-04T21:44:30.768Z,2.13
2018-08-04T21:47:00.756Z,1.77
2018-08-04T21:49:29.802Z,2.00
2018-08-04T21:51:58.843Z,1.70
2018-08-04T21:54:26.789Z,1.93
2018-08-04T21:56:54.734Z,2.50
2018-08-04T21:59:22.720Z,2.40
2018-08-04T22:01:54.844Z,2.47
2018-08-04T22:04:23.707Z,2.20
2018-08-04T22:08:07.015Z,2.10
2018-08-04T22:10:36.300Z,1.87
2018-08-04T22:13:04.766Z,1.90
2018-08-04T22:15:32.739Z,2.10
2018-08-04T22:18:01.796Z,1.87
2018-08-04T22:20:32.320Z,2.30
2018-08-04T22:23:00.548Z,2.43
2018-08-04T22:25:29.581Z,2.53
2018-08-04T22:27:58.177Z,2.90
2018-08-04T22:30:26.536Z,2.20
2018-08-04T22:32:54.720Z,2.10
2018-08-04T22:35:23.703Z,2.20
2018-08-04T22:37:51.748Z,2.30
2018-08-04T22:40:20.494Z,2.40
2018-08-04T22:42:49.558Z,2.13
2018-08-04T22:46:12.830Z,2.30
2018-08-04T22:48:42.830Z,1.80
2018-08-04T22:51:11.595Z,1.70
2018-08-04T22:53:41.427Z,2.10
2018-08-04T22:56:09.498Z,2.17
2018-08-04T22:58:37.451Z,1.90
2018-08-04T23:01:06.384Z,2.07
2018-08-04T23:03:35.964Z,1.90
2018-08-04T23:06:04.077Z,2.07
2018-08-04T23:08:32.151Z,2.00
2018-08-04T23:11:01.090Z,2.00
2018-08-04T23:13:29.728Z,2.27
2018-08-04T23:15:58.582Z,2.23
2018-08-04T23:18:27.587Z,2.10
2018-08-04T23:20:55.552Z,2.30
2018-08-04T23:23:23.603Z,2.67
2018-08-04T23:25:51.729Z,2.63
2018-08-04T23:28:19.644Z,2.30
2018-08-04T23:30:47.593Z,2.00
2018-08-04T23:33:16.967Z,2.33
2018-08-04T23:35:45.370Z,2.20
2018-08-04T23:38:13.376Z,2.00
2018-08-04T23:40:41.355Z,1.90
2018-08-04T23:43:09.728Z,2.20
2018-08-04T23:45:38.908Z,2.23
2018-08-04T23:48:06.888Z,2.33
2018-08-04T23:50:35.604Z,2.30
2018-08-04T23:53:03.608Z,2.60
2018-08-04T23:55:32.499Z,2.90
2018-08-04T23:58:00.482Z,2.20
